Time;durP1;ratioP1;P1;durP2;ratioP2;P2;SDS_P1;SDS_P2;PMS_P1;PMS_P2;Temp;Humidity;BMP_temperature;BMP_pressure;BME280_temperature;BME280_humidity;BME280_pressure;Samples;Min_cycle;Max_cycle;Signal;HPM_P1;HPM_P2
2023/05/12 00:01:35;;;;;;;12.93;8.35;;;;;;;11.62;100.00;101457.53;5094737;28;20066;-48
2023/05/12 00:04:04;;;;;;;12.63;7.15;;;;;;;11.56;100.00;101451.75;5094082;28;20048;-50
2023/05/12 00:06:32;;;;;;;13.25;8.05;;;;;;;11.50;100.00;101455.63;5094230;28;20048;-53
2023/05/12 00:09:04;;;;;;;13.32;7.95;;;;;;;11.50;100.00;101461.72;5094796;28;20052;-51
2023/05/12 00:11:34;;;;;;;11.80;7.10;;;;;;;11.57;100.00;101454.31;5094233;28;20562;-51
2023/05/12 00:14:02;;;;;;;13.18;8.52;;;;;;;11.58;100.00;101444.63;5094977;28;20048;-51
2023/05/12 00:16:32;;;;;;;12.82;8.13;;;;;;;11.59;100.00;101449.81;5094955;28;20389;-54
2023/05/12 00:19:01;;;;;;;14.82;8.65;;;;;;;11.64;100.00;101449.53;5093439;28;20405;-50
2023/05/12 00:21:29;;;;;;;12.25;7.60;;;;;;;11.64;100.00;101450.38;5090464;28;20105;-50
2023/05/12 00:23:58;;;;;;;12.32;8.00;;;;;;;11.51;100.00;101452.06;5075031;28;20036;-51
2023/05/12 00:26:26;;;;;;;13.68;7.72;;;;;;;11.64;100.00;101438.97;5094306;28;20483;-49
2023/05/12 00:28:55;;;;;;;13.02;7.97;;;;;;;11.62;100.00;101440.88;5094482;28;20055;-53
2023/05/12 00:31:23;;;;;;;12.80;7.63;;;;;;;11.61;100.00;101441.81;5095065;28;20044;-60
2023/05/12 00:33:52;;;;;;;13.05;8.40;;;;;;;11.64;100.00;101434.56;5094833;28;20055;-51
2023/05/12 00:36:20;;;;;;;11.48;7.78;;;;;;;11.52;100.00;101435.31;5095124;28;20050;-53
2023/05/12 00:38:48;;;;;;;12.98;8.25;;;;;;;11.51;100.00;101433.63;5094409;28;20117;-53
2023/05/12 00:41:16;;;;;;;11.52;7.78;;;;;;;11.54;100.00;101433.41;5075924;28;20105;-53
2023/05/12 00:43:44;;;;;;;12.32;7.10;;;;;;;11.53;100.00;101430.88;5072016;28;20052;-54
2023/05/12 00:46:14;;;;;;;11.93;7.18;;;;;;;11.53;100.00;101438.78;5091283;28;20048;-52
2023/05/12 00:48:43;;;;;;;9.93;5.97;;;;;;;11.47;100.00;101432.09;5092264;28;20075;-54
2023/05/12 00:51:16;;;;;;;9.43;5.60;;;;;;;11.44;100.00;101430.50;5089544;28;20044;-52
2023/05/12 00:53:45;;;;;;;9.88;5.28;;;;;;;11.42;100.00;101424.47;5093705;28;20998;-53
2023/05/12 00:56:18;;;;;;;8.40;5.30;;;;;;;11.44;100.00;101427.03;5094356;28;20052;-53
2023/05/12 00:58:47;;;;;;;7.60;4.57;;;;;;;11.36;100.00;101426.59;5094132;28;20387;-52
2023/05/12 01:01:16;;;;;;;8.38;4.72;;;;;;;11.39;100.00;101422.00;5093666;28;20044;-51
2023/05/12 01:03:45;;;;;;;8.88;5.22;;;;;;;11.37;100.00;101420.41;5091695;28;20482;-50
2023/05/12 01:06:19;;;;;;;8.48;5.07;;;;;;;11.41;100.00;101416.66;5089544;28;20076;-50
2023/05/12 01:08:48;;;;;;;9.82;5.30;;;;;;;11.42;100.00;101419.19;5093809;28;20090;-48
2023/05/12 01:11:16;;;;;;;8.20;4.40;;;;;;;11.44;100.00;101403.31;5093407;28;20078;-52
2023/05/12 01:13:44;;;;;;;7.13;4.05;;;;;;;11.46;100.00;101398.78;5093880;28;20047;-53
2023/05/12 01:16:15;;;;;;;7.30;3.67;;;;;;;11.50;100.00;101402.94;5092554;28;20044;-50
2023/05/12 01:18:48;;;;;;;6.38;3.58;;;;;;;11.49;100.00;101393.34;5090651;28;20410;-51
2023/05/12 01:21:18;;;;;;;6.95;3.33;;;;;;;11.44;100.00;101398.06;5088854;28;20123;-52
2023/05/12 01:23:51;;;;;;;8.32;3.33;;;;;;;11.41;100.00;101395.59;5093672;28;20532;-50
2023/05/12 01:26:21;;;;;;;5.53;3.17;;;;;;;11.38;100.00;101393.97;5093857;28;20058;-59
2023/05/12 01:28:51;;;;;;;6.80;3.17;;;;;;;11.43;100.00;101396.34;5093898;28;20040;-58
2023/05/12 01:31:20;;;;;;;7.45;2.95;;;;;;;11.39;100.00;101408.84;5093422;28;20059;-58
2023/05/12 01:33:48;;;;;;;6.35;3.22;;;;;;;11.41;100.00;101408.75;5092369;28;20044;-59
2023/05/12 01:36:16;;;;;;;6.10;3.20;;;;;;;11.37;100.00;101404.59;5092866;28;20122;-59
2023/05/12 01:38:44;;;;;;;8.07;3.28;;;;;;;11.42;100.00;101402.56;5074900;28;20098;-59
2023/05/12 01:41:12;;;;;;;6.50;3.53;;;;;;;11.31;100.00;101401.38;5092765;28;20044;-59
2023/05/12 01:43:45;;;;;;;9.07;3.65;;;;;;;11.35;100.00;101403.88;5092461;28;20048;-60
2023/05/12 01:46:13;;;;;;;6.85;3.45;;;;;;;11.26;100.00;101403.47;5093061;28;20043;-59
2023/05/12 01:48:42;;;;;;;7.93;3.80;;;;;;;11.24;100.00;101407.97;5092631;28;20478;-59
2023/05/12 01:51:10;;;;;;;8.75;4.65;;;;;;;11.23;100.00;101393.09;5092599;28;20566;-59
2023/05/12 01:53:38;;;;;;;8.80;4.43;;;;;;;11.20;100.00;101393.28;5092569;28;20036;-61
2023/05/12 01:56:07;;;;;;;12.35;4.72;;;;;;;11.20;100.00;101395.09;5093404;28;20050;-59
2023/05/12 01:58:35;;;;;;;8.80;4.72;;;;;;;11.15;100.00;101393.56;5093318;28;20090;-60
2023/05/12 02:01:05;;;;;;;9.57;4.90;;;;;;;11.18;100.00;101400.44;5092742;28;20051;-59
2023/05/12 02:03:33;;;;;;;8.75;4.95;;;;;;;11.19;100.00;101396.84;5092158;28;20360;-53
2023/05/12 02:06:01;;;;;;;10.45;5.60;;;;;;;11.20;100.00;101393.28;5092483;28;20052;-59
2023/05/12 02:08:29;;;;;;;10.13;5.53;;;;;;;11.14;100.00;101389.25;5092443;28;20051;-60
2023/05/12 02:11:05;;;;;;;9.82;5.50;;;;;;;11.13;100.00;101387.53;5074897;28;20044;-60
2023/05/12 02:13:34;;;;;;;13.02;7.10;;;;;;;11.21;100.00;101395.00;5092673;28;20732;-59
2023/05/12 02:16:07;;;;;;;11.68;6.43;;;;;;;11.18;100.00;101387.28;5074008;28;20101;-60
2023/05/12 02:18:35;;;;;;;12.45;6.88;;;;;;;11.14;100.00;101394.50;5092316;28;20051;-60
2023/05/12 02:21:04;;;;;;;13.85;7.47;;;;;;;11.10;100.00;101387.72;5093300;28;20044;-60
2023/05/12 02:23:32;;;;;;;16.60;8.52;;;;;;;11.10;100.00;101394.78;5093104;28;20048;-59
2023/05/12 02:26:00;;;;;;;13.77;7.35;;;;;;;11.14;100.00;101386.59;5092377;28;20523;-59
2023/05/12 02:28:28;;;;;;;15.05;8.48;;;;;;;11.08;100.00;101389.59;5091535;28;20578;-59
2023/05/12 02:30:57;;;;;;;18.55;9.07;;;;;;;11.14;100.00;101391.88;5092563;28;20553;-53
2023/05/12 02:33:26;;;;;;;16.90;9.40;;;;;;;11.14;100.00;101391.03;5092793;28;20044;-59
2023/05/12 02:35:55;;;;;;;17.80;9.45;;;;;;;11.11;100.00;101383.28;5074576;28;20139;-53
2023/05/12 02:38:24;;;;;;;17.17;9.77;;;;;;;11.17;100.00;101377.69;5092031;28;20102;-53
2023/05/12 02:40:52;;;;;;;19.42;9.82;;;;;;;11.13;100.00;101381.44;5092070;28;20039;-52
2023/05/12 02:43:21;;;;;;;19.60;11.00;;;;;;;11.16;100.00;101381.25;5092070;28;20491;-60
2023/05/12 02:45:49;;;;;;;20.30;11.20;;;;;;;11.16;100.00;101374.19;5092595;28;20361;-60
2023/05/12 02:48:17;;;;;;;22.40;12.30;;;;;;;11.16;100.00;101375.97;5092563;28;20048;-60
2023/05/12 02:50:47;;;;;;;24.48;13.20;;;;;;;11.12;100.00;101377.94;5092467;28;20678;-59
2023/05/12 02:53:15;;;;;;;24.38;12.05;;;;;;;11.12;100.00;101374.47;5074307;28;20048;-60
2023/05/12 02:55:43;;;;;;;24.75;12.82;;;;;;;11.12;100.00;101377.94;5091267;28;20044;-60
2023/05/12 02:58:11;;;;;;;25.05;13.32;;;;;;;11.13;100.00;101369.09;5091027;28;20066;-60
2023/05/12 03:00:39;;;;;;;26.50;12.77;;;;;;;11.15;100.00;101375.16;5092129;28;20117;-59
2023/05/12 03:03:07;;;;;;;24.00;13.40;;;;;;;11.13;100.00;101373.53;5091142;28;20097;-60
2023/05/12 03:05:36;;;;;;;25.55;13.82;;;;;;;11.14;100.00;101368.19;5090401;28;20071;-59
2023/05/12 03:08:05;;;;;;;26.70;13.98;;;;;;;11.15;100.00;101369.88;5090893;28;20042;-59
2023/05/12 03:10:34;;;;;;;25.73;14.27;;;;;;;11.20;100.00;101361.69;5090632;28;20113;-60
2023/05/12 03:13:02;;;;;;;25.17;13.93;;;;;;;11.24;100.00;101365.00;5090917;28;20048;-59
2023/05/12 03:15:30;;;;;;;29.88;15.43;;;;;;;11.18;100.00;101371.50;5092166;28;20123;-59
2023/05/12 03:17:58;;;;;;;28.20;15.68;;;;;;;11.18;100.00;101363.59;5091773;28;20098;-59
2023/05/12 03:20:27;;;;;;;32.15;16.52;;;;;;;11.24;100.00;101367.63;5091458;28;20451;-60
2023/05/12 03:22:55;;;;;;;30.85;17.25;;;;;;;11.20;100.00;101374.84;5092133;28;20150;-59
2023/05/12 03:25:24;;;;;;;29.25;16.05;;;;;;;11.22;100.00;101370.38;5091181;28;20709;-59
2023/05/12 03:27:52;;;;;;;33.03;18.10;;;;;;;11.30;100.00;101364.63;5090518;28;20051;-53
2023/05/12 03:30:21;;;;;;;32.60;18.13;;;;;;;11.30;100.00;101362.00;5088176;28;20578;-52
2023/05/12 03:32:49;;;;;;;33.00;18.00;;;;;;;11.26;100.00;101363.13;5073678;28;20055;-52
2023/05/12 03:35:18;;;;;;;33.47;18.60;;;;;;;11.30;100.00;101368.13;5092282;28;20051;-50
2023/05/12 03:37:46;;;;;;;33.22;18.42;;;;;;;11.28;100.00;101359.44;5091279;28;20072;-54
2023/05/12 03:40:17;;;;;;;38.35;19.83;;;;;;;11.28;100.00;101367.34;5077156;28;20102;-53
2023/05/12 03:42:47;;;;;;;35.70;19.70;;;;;;;11.36;100.00;101366.91;5095441;28;20036;-53
2023/05/12 03:45:15;;;;;;;34.05;19.27;;;;;;;11.38;100.00;101378.19;5095287;28;20723;-53
2023/05/12 03:47:44;;;;;;;37.35;18.25;;;;;;;11.36;100.00;101372.16;5095391;28;20370;-50
2023/05/12 03:50:12;;;;;;;36.08;18.65;;;;;;;11.41;100.00;101377.16;5092524;28;20072;-53
2023/05/12 03:52:41;;;;;;;37.45;20.33;;;;;;;11.41;100.00;101385.91;5091253;28;20453;-52
2023/05/12 03:55:09;;;;;;;37.03;19.83;;;;;;;11.43;100.00;101378.75;5094392;28;20063;-53
2023/05/12 03:57:37;;;;;;;41.35;21.90;;;;;;;11.47;100.00;101382.06;5094877;28;20044;-52
2023/05/12 04:00:08;;;;;;;41.20;21.42;;;;;;;11.53;100.00;101379.03;5093750;28;20047;-53
2023/05/12 04:02:36;;;;;;;42.65;21.50;;;;;;;11.49;100.00;101382.78;5092155;28;20392;-54
2023/05/12 04:05:07;;;;;;;41.95;22.20;;;;;;;11.52;100.00;101382.63;5093803;28;20434;-54
2023/05/12 04:07:35;;;;;;;43.33;22.88;;;;;;;11.51;100.00;101391.47;5094778;28;20040;-52
2023/05/12 04:10:04;;;;;;;41.35;22.20;;;;;;;11.58;100.00;101381.41;5094907;28;20048;-54
2023/05/12 04:12:34;;;;;;;48.88;24.23;;;;;;;11.56;100.00;101378.00;5094831;28;20118;-54
2023/05/12 04:15:02;;;;;;;45.70;24.42;;;;;;;11.58;100.00;101374.34;5094972;28;20448;-55
2023/05/12 04:17:32;;;;;;;47.83;24.13;;;;;;;11.57;100.00;101382.34;5094874;28;20131;-54
2023/05/12 04:20:01;;;;;;;43.85;23.33;;;;;;;11.60;100.00;101377.75;5094831;28;20043;-55
2023/05/12 04:22:29;;;;;;;48.13;23.88;;;;;;;11.63;100.00;101377.56;5094653;28;20478;-53
2023/05/12 04:24:57;;;;;;;48.22;24.35;;;;;;;11.63;100.00;101380.19;5094582;28;20044;-54
2023/05/12 04:27:25;;;;;;;46.90;24.48;;;;;;;11.69;100.00;101383.38;5094278;28;20127;-51
2023/05/12 04:29:53;;;;;;;45.88;23.52;;;;;;;11.78;100.00;101388.06;5094484;28;20109;-52
2023/05/12 04:32:21;;;;;;;45.00;24.55;;;;;;;11.82;100.00;101394.84;5094205;28;20406;-53
2023/05/12 04:34:54;;;;;;;47.95;25.65;;;;;;;11.80;100.00;101394.09;5094420;28;20387;-52
2023/05/12 04:37:22;;;;;;;47.75;24.58;;;;;;;11.83;100.00;101397.41;5093899;28;20113;-53
2023/05/12 04:39:50;;;;;;;53.90;26.10;;;;;;;11.84;100.00;101395.63;5094490;28;20098;-52
2023/05/12 04:42:19;;;;;;;50.45;25.35;;;;;;;11.83;100.00;101405.31;5094042;28;20044;-54
2023/05/12 04:44:48;;;;;;;52.97;26.95;;;;;;;11.82;100.00;101402.75;5094400;28;20069;-53
2023/05/12 04:47:16;;;;;;;52.30;26.83;;;;;;;11.86;100.00;101398.97;5094339;28;20127;-53
2023/05/12 04:49:44;;;;;;;51.38;27.48;;;;;;;11.88;100.00;101399.75;5094007;28;20044;-52
2023/05/12 04:52:13;;;;;;;52.83;26.42;;;;;;;11.88;100.00;101393.66;5093643;28;20044;-51
2023/05/12 04:54:41;;;;;;;52.70;27.40;;;;;;;11.95;100.00;101390.53;5094072;28;20048;-52
2023/05/12 04:57:10;;;;;;;51.50;26.63;;;;;;;11.94;100.00;101407.31;5094318;28;20618;-59
2023/05/12 04:59:38;;;;;;;53.70;27.05;;;;;;;11.96;100.00;101404.59;5076118;28;20040;-59
2023/05/12 05:02:08;;;;;;;47.67;26.13;;;;;;;12.04;100.00;101404.09;5092467;28;20063;-59
2023/05/12 05:04:36;;;;;;;51.95;26.45;;;;;;;12.05;100.00;101405.78;5092427;28;20070;-59
2023/05/12 05:07:05;;;;;;;49.00;26.92;;;;;;;12.08;100.00;101408.22;5093004;28;20055;-60
2023/05/12 05:09:38;;;;;;;50.60;29.45;;;;;;;12.10;100.00;101414.28;5093735;28;20161;-59
2023/05/12 05:12:08;;;;;;;48.95;26.52;;;;;;;12.09;100.00;101417.84;5074677;28;20113;-59
2023/05/12 05:14:39;;;;;;;50.92;27.08;;;;;;;12.13;100.00;101421.97;5091344;28;20486;-60
2023/05/12 05:17:08;;;;;;;47.67;26.55;;;;;;;12.16;100.00;101430.56;5091640;28;20052;-60
2023/05/12 05:19:36;;;;;;;48.78;26.98;;;;;;;12.22;100.00;101436.41;5091190;28;20040;-60
2023/05/12 05:22:22;;;;;;;46.50;26.50;;;;;;;12.23;100.00;101438.06;5074283;28;20056;-60
2023/05/12 05:24:55;;;;;;;44.50;25.10;;;;;;;12.30;100.00;101437.59;5091068;28;20136;-59
2023/05/12 05:27:25;;;;;;;47.17;27.05;;;;;;;12.30;100.00;101428.84;5073563;28;20051;-60
2023/05/12 05:29:54;;;;;;;45.70;26.60;;;;;;;12.32;100.00;101441.00;5090312;28;20051;-60
2023/05/12 05:32:22;;;;;;;47.08;27.23;;;;;;;12.37;100.00;101434.59;5091615;28;20395;-60
2023/05/12 05:34:50;;;;;;;46.05;27.30;;;;;;;12.40;100.00;101443.13;5091786;28;20094;-60
2023/05/12 05:37:18;;;;;;;45.08;26.90;;;;;;;12.41;100.00;101442.19;5092042;28;20060;-60
2023/05/12 05:39:46;;;;;;;42.97;25.85;;;;;;;12.51;100.00;101443.28;5072889;28;20299;-61
2023/05/12 05:42:16;;;;;;;43.25;25.73;;;;;;;12.57;100.00;101452.63;5091027;28;20043;-60
2023/05/12 05:44:44;;;;;;;43.13;25.83;;;;;;;12.59;100.00;101448.09;5090233;28;20052;-60
2023/05/12 05:47:12;;;;;;;42.15;25.35;;;;;;;12.63;100.00;101462.78;5072878;28;20044;-60
2023/05/12 05:49:41;;;;;;;44.08;25.83;;;;;;;12.60;100.00;101468.25;5090424;28;20059;-61
2023/05/12 05:52:09;;;;;;;45.05;26.60;;;;;;;12.68;100.00;101463.34;5072787;28;20576;-61
2023/05/12 05:54:37;;;;;;;44.97;27.15;;;;;;;12.80;100.00;101469.63;5089780;28;20122;-61
2023/05/12 05:57:06;;;;;;;40.95;25.33;;;;;;;12.74;100.00;101471.81;5091238;28;20079;-61
2023/05/12 05:59:36;;;;;;;44.47;26.80;;;;;;;12.76;100.00;101476.03;5090317;28;20040;-60
2023/05/12 06:02:04;;;;;;;43.50;26.45;;;;;;;12.82;100.00;101477.44;5089586;28;20063;-62
2023/05/12 06:04:32;;;;;;;42.88;26.60;;;;;;;12.82;100.00;101478.28;5089238;28;20052;-61
2023/05/12 06:07:01;;;;;;;42.55;27.02;;;;;;;12.93;100.00;101487.31;5089910;28;20043;-61
2023/05/12 06:09:29;;;;;;;43.75;27.33;;;;;;;12.93;100.00;101489.94;5090401;28;20757;-62
2023/05/12 06:11:57;;;;;;;44.00;27.08;;;;;;;12.90;100.00;101493.63;5090449;28;20048;-61
2023/05/12 06:14:25;;;;;;;41.13;25.80;;;;;;;12.95;100.00;101495.94;5088944;28;20054;-60
2023/05/12 06:16:54;;;;;;;43.00;25.73;;;;;;;13.00;100.00;101501.78;5089680;28;20521;-62
2023/05/12 06:19:23;;;;;;;39.35;26.73;;;;;;;13.11;100.00;101501.94;5089394;28;20507;-60
2023/05/12 06:21:52;;;;;;;38.42;26.05;;;;;;;13.10;100.00;101504.66;5090094;28;20450;-61
2023/05/12 06:24:20;;;;;;;41.13;24.70;;;;;;;13.15;100.00;101506.06;5089671;28;20411;-61
2023/05/12 06:26:48;;;;;;;35.95;23.50;;;;;;;13.26;100.00;101510.63;5071632;28;20082;-61
2023/05/12 06:29:18;;;;;;;37.95;24.45;;;;;;;13.25;100.00;101514.25;5090123;28;20143;-61
2023/05/12 06:31:46;;;;;;;37.05;24.15;;;;;;;13.31;100.00;101519.13;5090009;28;20051;-61
2023/05/12 06:34:16;;;;;;;34.55;23.60;;;;;;;13.37;100.00;101522.34;5089956;28;20105;-60
2023/05/12 06:36:44;;;;;;;34.42;23.27;;;;;;;13.34;100.00;101521.53;5089450;28;20249;-62
2023/05/12 06:39:12;;;;;;;33.97;22.65;;;;;;;13.43;100.00;101532.47;5089674;28;20094;-61
2023/05/12 06:41:40;;;;;;;29.90;20.67;;;;;;;13.47;100.00;101529.56;5089652;28;20454;-61
2023/05/12 06:44:11;;;;;;;31.48;21.50;;;;;;;13.49;100.00;101532.91;5089003;28;20132;-55
2023/05/12 06:46:39;;;;;;;29.88;20.27;;;;;;;13.55;100.00;101536.09;5088865;28;20043;-55
2023/05/12 06:49:08;;;;;;;29.38;19.98;;;;;;;13.64;100.00;101538.97;5089258;28;20507;-55
2023/05/12 06:51:40;;;;;;;27.25;19.60;;;;;;;13.72;100.00;101532.34;5088818;28;20040;-59
2023/05/12 06:54:08;;;;;;;27.45;18.58;;;;;;;13.78;100.00;101547.78;5089239;28;20532;-62
2023/05/12 06:56:36;;;;;;;26.75;18.42;;;;;;;13.91;100.00;101543.34;5089374;28;20040;-62
2023/05/12 06:59:04;;;;;;;25.13;17.27;;;;;;;13.97;100.00;101550.03;5089230;28;20044;-62
2023/05/12 07:01:33;;;;;;;22.73;16.75;;;;;;;14.03;100.00;101553.09;5089301;28;20039;-61
2023/05/12 07:04:01;;;;;;;23.23;16.10;;;;;;;14.23;100.00;101561.44;5090755;28;20051;-62
2023/05/12 07:06:30;;;;;;;22.98;16.92;;;;;;;14.35;100.00;101554.47;5089891;28;20336;-62
2023/05/12 07:09:00;;;;;;;21.17;15.20;;;;;;;14.51;100.00;101560.38;5088664;28;20093;-61
2023/05/12 07:11:28;;;;;;;17.65;12.45;;;;;;;14.66;100.00;101565.56;5090544;28;20369;-62
2023/05/12 07:13:56;;;;;;;19.40;13.73;;;;;;;14.86;100.00;101558.84;5073173;28;20063;-62
2023/05/12 07:16:24;;;;;;;18.90;13.52;;;;;;;14.97;100.00;101564.22;5093669;28;20603;-62
2023/05/12 07:18:52;;;;;;;18.25;13.15;;;;;;;15.04;100.00;101554.88;5093750;28;20056;-61
2023/05/12 07:21:21;;;;;;;19.50;13.02;;;;;;;15.16;100.00;101568.16;5091967;28;20036;-62
2023/05/12 07:23:49;;;;;;;19.77;14.00;;;;;;;15.22;100.00;101573.03;5092991;28;20077;-62
2023/05/12 07:26:19;;;;;;;18.52;13.07;;;;;;;15.33;100.00;101575.72;5093957;28;20486;-62
2023/05/12 07:28:47;;;;;;;17.38;13.20;;;;;;;15.41;100.00;101576.97;5092762;28;20578;-61
2023/05/12 07:31:16;;;;;;;18.65;12.95;;;;;;;15.40;100.00;101570.81;5093318;28;20090;-62
2023/05/12 07:33:44;;;;;;;17.77;13.43;;;;;;;15.48;100.00;101578.22;5093427;28;20776;-62
2023/05/12 07:36:13;;;;;;;18.55;14.05;;;;;;;15.56;100.00;101578.47;5092750;28;20105;-62
2023/05/12 07:38:41;;;;;;;17.23;12.45;;;;;;;15.74;100.00;101575.41;5093011;28;20044;-62
2023/05/12 07:41:09;;;;;;;16.48;12.02;;;;;;;15.79;100.00;101586.50;5075462;28;20052;-62
2023/05/12 07:43:38;;;;;;;18.83;11.77;;;;;;;15.83;100.00;101578.25;5094461;28;20174;-62
2023/05/12 07:46:09;;;;;;;17.45;11.82;;;;;;;15.91;100.00;101584.75;5095907;28;20372;-62
2023/05/12 07:48:39;;;;;;;16.23;11.75;;;;;;;15.98;100.00;101584.19;5093205;28;20490;-62
2023/05/12 07:51:08;;;;;;;17.52;12.15;;;;;;;16.07;100.00;101581.78;5093046;28;20052;-62
2023/05/12 07:53:36;;;;;;;14.77;11.38;;;;;;;16.23;100.00;101580.47;5077245;28;20043;-62
2023/05/12 07:56:06;;;;;;;18.15;11.38;;;;;;;16.32;100.00;101581.56;5093031;28;20113;-62
2023/05/12 07:58:35;;;;;;;17.42;10.55;;;;;;;16.44;100.00;101578.91;5091734;28;20078;-62
2023/05/12 08:01:05;;;;;;;14.48;11.07;;;;;;;16.51;100.00;101582.78;5092307;28;20032;-62
2023/05/12 08:03:35;;;;;;;13.52;10.40;;;;;;;16.73;100.00;101581.94;5092798;28;20051;-64
2023/05/12 08:06:04;;;;;;;14.57;10.18;;;;;;;16.93;100.00;101582.19;5091331;28;20040;-63
2023/05/12 08:08:32;;;;;;;14.52;10.57;;;;;;;17.00;100.00;101583.38;5074652;28;20109;-62
2023/05/12 08:11:00;;;;;;;13.73;10.23;;;;;;;17.09;100.00;101587.09;5091947;28;20057;-62
2023/05/12 08:13:28;;;;;;;11.73;8.32;;;;;;;17.01;100.00;101585.88;5092029;28;20398;-62
2023/05/12 08:15:56;;;;;;;12.57;8.27;;;;;;;17.15;100.00;101602.53;5093200;28;20090;-62
2023/05/12 08:18:26;;;;;;;13.55;8.77;;;;;;;17.29;100.00;101588.97;5092246;28;20507;-58
2023/05/12 08:20:55;;;;;;;11.55;8.57;;;;;;;17.45;100.00;101601.84;5073470;28;20098;-62
2023/05/12 08:23:23;;;;;;;11.30;8.43;;;;;;;17.31;100.00;101595.00;5092096;28;20075;-58
2023/05/12 08:25:51;;;;;;;10.10;7.75;;;;;;;17.44;100.00;101599.31;5073463;28;20044;-57
2023/05/12 08:28:20;;;;;;;11.95;8.13;;;;;;;17.53;100.00;101602.06;5073514;28;20048;-57
2023/05/12 08:30:51;;;;;;;10.63;7.53;;;;;;;17.70;100.00;101603.31;5090613;28;20055;-56
2023/05/12 08:33:19;;;;;;;10.13;6.80;;;;;;;17.86;100.00;101607.34;5091698;28;20045;-56
2023/05/12 08:35:49;;;;;;;9.80;6.25;;;;;;;17.96;100.00;101607.47;5090430;28;20406;-62
2023/05/12 08:38:17;;;;;;;8.00;5.32;;;;;;;17.81;100.00;101606.91;5092116;28;20135;-63
2023/05/12 08:40:53;;;;;;;8.48;4.68;;;;;;;17.71;100.00;101614.78;5091389;28;20475;-63
2023/05/12 08:43:24;;;;;;;7.90;4.55;;;;;;;17.86;100.00;101626.81;5090760;28;20043;-57
2023/05/12 08:45:56;;;;;;;7.63;4.68;;;;;;;17.77;100.00;101613.44;5091257;28;20502;-57
2023/05/12 08:48:29;;;;;;;6.50;4.18;;;;;;;17.99;100.00;101613.34;5091604;28;20083;-57
2023/05/12 08:50:59;;;;;;;6.28;3.80;;;;;;;18.00;100.00;101617.69;5090113;28;20044;-56
2023/05/12 08:53:29;;;;;;;6.10;3.40;;;;;;;18.05;100.00;101627.94;5090684;28;20048;-57
2023/05/12 08:56:00;;;;;;;6.28;3.40;;;;;;;17.99;100.00;101633.81;5091640;28;20048;-56
2023/05/12 08:58:48;;;;;;;5.40;3.45;;;;;;;18.05;100.00;101631.47;5094351;28;20070;-57
2023/05/12 09:01:17;;;;;;;5.95;3.50;;;;;;;18.09;100.00;101629.38;5094339;28;20127;-56
2023/05/12 09:03:46;;;;;;;5.63;3.42;;;;;;;18.18;100.00;101644.56;5076019;28;20646;-56
2023/05/12 09:06:16;;;;;;;5.28;3.47;;;;;;;18.27;100.00;101637.63;5093990;28;20052;-63
2023/05/12 09:08:45;;;;;;;6.25;3.00;;;;;;;18.35;100.00;101640.47;5093768;28;20525;-61
2023/05/12 09:11:14;;;;;;;4.28;2.28;;;;;;;18.38;100.00;101636.72;5091871;28;20131;-62
2023/05/12 09:13:48;;;;;;;5.80;2.33;;;;;;;18.41;100.00;101641.75;5090750;28;20434;-61
2023/05/12 09:16:22;;;;;;;4.65;2.45;;;;;;;18.43;100.00;101642.47;5092903;28;20043;-62
2023/05/12 09:18:52;;;;;;;5.47;2.70;;;;;;;18.47;100.00;101643.06;5090377;28;20433;-62
2023/05/12 09:21:22;;;;;;;4.97;2.40;;;;;;;18.61;100.00;101641.84;5081162;28;20076;-62
2023/05/12 09:23:55;;;;;;;4.72;2.70;;;;;;;18.52;100.00;101654.16;5090914;28;20472;-62
2023/05/12 09:26:25;;;;;;;4.63;2.70;;;;;;;18.56;100.00;101656.41;5091360;28;20044;-56
2023/05/12 09:28:55;;;;;;;4.05;2.33;;;;;;;18.67;100.00;101652.81;5090170;28;20046;-62
2023/05/12 09:31:24;;;;;;;3.75;2.25;;;;;;;18.61;100.00;101650.69;5092440;28;20370;-63
2023/05/12 09:33:53;;;;;;;6.35;2.40;;;;;;;18.56;100.00;101652.91;5090674;28;20048;-63
2023/05/12 09:36:24;;;;;;;4.43;2.30;;;;;;;18.69;100.00;101650.88;5088358;28;20093;-63
2023/05/12 09:39:03;;;;;;;4.43;2.58;;;;;;;18.60;100.00;101659.66;5072005;28;20060;-57
2023/05/12 09:41:36;;;;;;;5.85;2.65;;;;;;;18.61;100.00;101656.03;5090813;28;20036;-63
2023/05/12 09:44:06;;;;;;;3.47;2.45;;;;;;;18.52;100.00;101659.47;5089428;28;20641;-56
2023/05/12 09:46:34;;;;;;;4.70;2.40;;;;;;;18.59;100.00;101656.13;5089619;28;20142;-56
2023/05/12 09:49:03;;;;;;;4.18;2.50;;;;;;;18.62;100.00;101665.69;5089575;28;20097;-56
2023/05/12 09:51:33;;;;;;;5.20;2.50;;;;;;;18.71;100.00;101661.41;5089058;28;20371;-57
2023/05/12 09:54:04;;;;;;;;;;;;;;;18.74;100.00;101663.78;5090569;28;20111;-56
2023/05/12 09:56:37;;;;;;;4.75;2.72;;;;;;;18.81;100.00;101661.44;5092502;28;20403;-53
2023/05/12 09:59:12;;;;;;;4.47;2.40;;;;;;;18.90;100.00;101661.50;5089876;28;20048;-55
2023/05/12 10:01:41;;;;;;;5.07;2.40;;;;;;;18.91;100.00;101659.69;5089721;28;20055;-56
2023/05/12 10:04:10;;;;;;;4.72;2.40;;;;;;;18.91;100.00;101654.38;5088807;28;20103;-54
2023/05/12 10:06:41;;;;;;;3.80;2.40;;;;;;;19.03;100.00;101661.28;5089281;28;20052;-56
2023/05/12 10:09:16;;;;;;;5.25;2.58;;;;;;;19.13;100.00;101666.63;5089303;28;20113;-62
2023/05/12 10:11:45;;;;;;;4.55;2.70;;;;;;;19.16;100.00;101665.53;5068965;28;20568;-62
2023/05/12 10:14:13;;;;;;;4.75;2.50;;;;;;;19.09;100.00;101673.22;5068898;28;20051;-61
2023/05/12 10:16:41;;;;;;;4.20;2.30;;;;;;;19.04;100.00;101667.44;5069278;28;20090;-61
2023/05/12 10:19:11;;;;;;;4.65;2.55;;;;;;;19.18;100.00;101666.22;5069180;28;20407;-62
2023/05/12 10:21:43;;;;;;;5.53;2.50;;;;;;;19.24;100.00;101666.50;5087846;28;20395;-62
2023/05/12 10:24:12;;;;;;;5.95;2.75;;;;;;;19.42;100.00;101673.84;5092658;28;20047;-61
2023/05/12 10:26:43;;;;;;;4.65;2.60;;;;;;;19.49;100.00;101674.13;5092537;28;20109;-61
2023/05/12 10:29:13;;;;;;;3.88;2.45;;;;;;;19.43;100.00;101673.69;5088869;28;20507;-55
2023/05/12 10:31:43;;;;;;;3.70;2.42;;;;;;;19.42;100.00;101666.69;5088366;28;20044;-56
2023/05/12 10:34:17;;;;;;;4.68;2.67;;;;;;;19.56;100.00;101665.41;5088543;28;20196;-56
2023/05/12 10:36:52;;;;;;;4.93;2.70;;;;;;;19.61;100.00;101664.19;5089185;28;20555;-55
2023/05/12 10:39:28;;;;;;;4.78;2.63;;;;;;;19.81;100.00;101665.03;5089253;28;20055;-56
2023/05/12 10:42:01;;;;;;;4.03;2.30;;;;;;;19.92;100.00;101668.44;5089881;28;20044;-55
2023/05/12 10:44:29;;;;;;;5.05;2.95;;;;;;;19.91;100.00;101664.06;5090980;28;20044;-55
2023/05/12 10:46:58;;;;;;;4.05;2.30;;;;;;;20.04;100.00;101673.59;5088873;28;20083;-55
2023/05/12 10:49:36;;;;;;;6.10;2.40;;;;;;;20.21;100.00;101670.22;5088731;28;20044;-56
2023/05/12 10:52:06;;;;;;;5.57;2.20;;;;;;;20.24;100.00;101666.41;5088901;28;20040;-56
2023/05/12 10:54:43;;;;;;;4.47;2.50;;;;;;;20.46;100.00;101672.41;5088948;28;20055;-56
2023/05/12 10:57:15;;;;;;;5.15;2.90;;;;;;;20.63;100.00;101674.34;5089309;28;20068;-55
2023/05/12 10:59:49;;;;;;;4.25;2.28;;;;;;;20.90;100.00;101662.84;5088669;28;20048;-56
2023/05/12 11:02:19;;;;;;;;;;;;;;;21.26;100.00;101667.44;5089308;28;20036;-56
2023/05/12 11:04:51;;;;;;;3.88;2.17;;;;;;;21.50;94.98;101663.34;5074526;28;19928;-56
2023/05/12 11:07:25;;;;;;;3.97;2.20;;;;;;;21.51;94.73;101662.34;5070882;28;20055;-56
2023/05/12 11:09:55;;;;;;;3.75;2.20;;;;;;;21.64;91.67;101654.81;5089463;28;20128;-56
2023/05/12 11:12:31;;;;;;;5.38;2.50;;;;;;;21.84;94.82;101654.66;5088971;28;20143;-63
2023/05/12 11:15:01;;;;;;;4.28;2.35;;;;;;;21.83;93.56;101671.69;5087148;28;20048;-63
2023/05/12 11:17:29;;;;;;;5.05;2.45;;;;;;;21.90;92.70;101654.03;5088741;28;20052;-63
2023/05/12 11:19:57;;;;;;;5.43;2.33;;;;;;;21.77;93.40;101668.66;5087709;28;20430;-56